sensor_id;sensor_type;location;lat;lon;timestamp;P1;durP1;ratioP1;P2;durP2;ratioP2
42884;SDS011;28534;48.100;11.584;2022-12-18T00:00:18;8.27;;;6.22;;
42884;SDS011;28534;48.100;11.584;2022-12-18T00:05:21;8.20;;;6.82;;
42884;SDS011;28534;48.100;11.584;2022-12-18T00:10:23;7.15;;;6.20;;
42884;SDS011;28534;48.100;11.584;2022-12-18T00:15:25;8.50;;;6.93;;
42884;SDS011;28534;48.100;11.584;2022-12-18T00:20:28;6.95;;;6.10;;
42884;SDS011;28534;48.100;11.584;2022-12-18T00:25:32;8.00;;;5.95;;
42884;SDS011;28534;48.100;11.584;2022-12-18T00:30:34;7.03;;;6.10;;
42884;SDS011;28534;48.100;11.584;2022-12-18T00:35:37;7.05;;;6.32;;
42884;SDS011;28534;48.100;11.584;2022-12-18T00:40:39;7.05;;;6.35;;
42884;SDS011;28534;48.100;11.584;2022-12-18T00:45:40;8.60;;;6.60;;
42884;SDS011;28534;48.100;11.584;2022-12-18T00:50:44;6.93;;;6.22;;
42884;SDS011;28534;48.100;11.584;2022-12-18T00:55:46;6.85;;;6.00;;
42884;SDS011;28534;48.100;11.584;2022-12-18T01:00:48;6.13;;;5.40;;
42884;SDS011;28534;48.100;11.584;2022-12-18T01:05:52;7.60;;;6.10;;
42884;SDS011;28534;48.100;11.584;2022-12-18T01:10:54;6.95;;;5.88;;
42884;SDS011;28534;48.100;11.584;2022-12-18T01:15:55;7.15;;;6.43;;
42884;SDS011;28534;48.100;11.584;2022-12-18T01:20:58;6.90;;;6.20;;
42884;SDS011;28534;48.100;11.584;2022-12-18T01:26:03;6.47;;;5.65;;
42884;SDS011;28534;48.100;11.584;2022-12-18T01:31:13;6.65;;;5.82;;
42884;SDS011;28534;48.100;11.584;2022-12-18T01:36:20;6.35;;;5.63;;
42884;SDS011;28534;48.100;11.584;2022-12-18T01:41:24;6.65;;;5.40;;
42884;SDS011;28534;48.100;11.584;2022-12-18T01:46:47;7.22;;;6.18;;
42884;SDS011;28534;48.100;11.584;2022-12-18T01:51:50;6.57;;;5.78;;
42884;SDS011;28534;48.100;11.584;2022-12-18T01:56:52;6.82;;;6.13;;
42884;SDS011;28534;48.100;11.584;2022-12-18T02:01:54;6.53;;;5.82;;
42884;SDS011;28534;48.100;11.584;2022-12-18T02:06:59;6.85;;;5.97;;
42884;SDS011;28534;48.100;11.584;2022-12-18T02:12:09;6.93;;;5.80;;
42884;SDS011;28534;48.100;11.584;2022-12-18T02:17:16;6.13;;;5.53;;
42884;SDS011;28534;48.100;11.584;2022-12-18T02:22:26;6.78;;;5.72;;
42884;SDS011;28534;48.100;11.584;2022-12-18T02:27:35;6.25;;;5.57;;
42884;SDS011;28534;48.100;11.584;2022-12-18T02:32:40;6.57;;;5.45;;
42884;SDS011;28534;48.100;11.584;2022-12-18T02:37:46;6.25;;;5.32;;
42884;SDS011;28534;48.100;11.584;2022-12-18T02:42:49;6.57;;;5.72;;
42884;SDS011;28534;48.100;11.584;2022-12-18T02:47:51;6.53;;;5.60;;
42884;SDS011;28534;48.100;11.584;2022-12-18T02:52:56;5.95;;;5.22;;
42884;SDS011;28534;48.100;11.584;2022-12-18T02:58:08;6.43;;;5.65;;
42884;SDS011;28534;48.100;11.584;2022-12-18T03:03:16;6.32;;;5.65;;
42884;SDS011;28534;48.100;11.584;2022-12-18T03:08:23;6.55;;;5.07;;
42884;SDS011;28534;48.100;11.584;2022-12-18T03:13:29;5.90;;;5.30;;
42884;SDS011;28534;48.100;11.584;2022-12-18T03:18:35;5.70;;;5.10;;
42884;SDS011;28534;48.100;11.584;2022-12-18T03:23:40;6.40;;;5.70;;
42884;SDS011;28534;48.100;11.584;2022-12-18T03:28:48;6.03;;;5.28;;
42884;SDS011;28534;48.100;11.584;2022-12-18T03:33:54;6.55;;;5.70;;
42884;SDS011;28534;48.100;11.584;2022-12-18T03:38:58;5.88;;;5.28;;
42884;SDS011;28534;48.100;11.584;2022-12-18T03:44:03;5.78;;;5.18;;
42884;SDS011;28534;48.100;11.584;2022-12-18T03:49:11;5.32;;;4.80;;
42884;SDS011;28534;48.100;11.584;2022-12-18T03:54:20;5.10;;;4.60;;
42884;SDS011;28534;48.100;11.584;2022-12-18T03:59:24;5.53;;;4.80;;
42884;SDS011;28534;48.100;11.584;2022-12-18T04:04:27;5.20;;;4.70;;
42884;SDS011;28534;48.100;11.584;2022-12-18T04:09:31;5.15;;;4.65;;
42884;SDS011;28534;48.100;11.584;2022-12-18T04:14:36;5.72;;;4.60;;
42884;SDS011;28534;48.100;11.584;2022-12-18T04:19:37;5.55;;;4.95;;
42884;SDS011;28534;48.100;11.584;2022-12-18T04:24:39;5.15;;;4.65;;
42884;SDS011;28534;48.100;11.584;2022-12-18T04:29:42;4.88;;;4.38;;
42884;SDS011;28534;48.100;11.584;2022-12-18T04:34:44;7.35;;;4.70;;
42884;SDS011;28534;48.100;11.584;2022-12-18T04:39:46;4.60;;;4.20;;
42884;SDS011;28534;48.100;11.584;2022-12-18T04:44:49;4.70;;;4.30;;
42884;SDS011;28534;48.100;11.584;2022-12-18T04:49:51;5.45;;;4.85;;
42884;SDS011;28534;48.100;11.584;2022-12-18T04:54:52;4.53;;;4.13;;
42884;SDS011;28534;48.100;11.584;2022-12-18T04:59:56;4.95;;;4.35;;
42884;SDS011;28534;48.100;11.584;2022-12-18T05:04:57;4.85;;;4.35;;
42884;SDS011;28534;48.100;11.584;2022-12-18T05:09:59;4.93;;;4.43;;
42884;SDS011;28534;48.100;11.584;2022-12-18T05:15:02;6.72;;;4.70;;
42884;SDS011;28534;48.100;11.584;2022-12-18T05:20:05;7.70;;;4.38;;
42884;SDS011;28534;48.100;11.584;2022-12-18T05:25:07;5.75;;;4.38;;
42884;SDS011;28534;48.100;11.584;2022-12-18T05:30:11;6.65;;;4.97;;
42884;SDS011;28534;48.100;11.584;2022-12-18T05:35:14;7.90;;;4.10;;
42884;SDS011;28534;48.100;11.584;2022-12-18T05:40:16;4.45;;;4.05;;
42884;SDS011;28534;48.100;11.584;2022-12-18T05:45:19;6.32;;;4.22;;
42884;SDS011;28534;48.100;11.584;2022-12-18T05:50:21;6.80;;;4.68;;
42884;SDS011;28534;48.100;11.584;2022-12-18T05:55:23;10.80;;;4.40;;
42884;SDS011;28534;48.100;11.584;2022-12-18T06:00:28;8.75;;;4.15;;
42884;SDS011;28534;48.100;11.584;2022-12-18T06:05:33;10.75;;;5.20;;
42884;SDS011;28534;48.100;11.584;2022-12-18T06:10:36;13.35;;;4.82;;
42884;SDS011;28534;48.100;11.584;2022-12-18T06:15:40;8.52;;;4.28;;
42884;SDS011;28534;48.100;11.584;2022-12-18T06:20:42;8.68;;;4.55;;
42884;SDS011;28534;48.100;11.584;2022-12-18T06:25:43;12.90;;;4.95;;
42884;SDS011;28534;48.100;11.584;2022-12-18T06:30:47;9.95;;;4.20;;
42884;SDS011;28534;48.100;11.584;2022-12-18T06:35:49;10.52;;;4.55;;
42884;SDS011;28534;48.100;11.584;2022-12-18T06:40:51;7.20;;;4.47;;
42884;SDS011;28534;48.100;11.584;2022-12-18T06:45:58;10.27;;;4.60;;
42884;SDS011;28534;48.100;11.584;2022-12-18T06:51:00;9.18;;;4.28;;
42884;SDS011;28534;48.100;11.584;2022-12-18T06:56:04;11.00;;;5.32;;
42884;SDS011;28534;48.100;11.584;2022-12-18T07:01:10;12.98;;;5.47;;
42884;SDS011;28534;48.100;11.584;2022-12-18T07:06:13;11.57;;;6.22;;
42884;SDS011;28534;48.100;11.584;2022-12-18T07:11:16;9.48;;;5.30;;
42884;SDS011;28534;48.100;11.584;2022-12-18T07:16:21;11.75;;;6.10;;
42884;SDS011;28534;48.100;11.584;2022-12-18T07:21:23;12.45;;;5.57;;
42884;SDS011;28534;48.100;11.584;2022-12-18T07:26:26;38.88;;;18.80;;
42884;SDS011;28534;48.100;11.584;2022-12-18T07:31:29;34.03;;;13.35;;
42884;SDS011;28534;48.100;11.584;2022-12-18T07:36:30;45.80;;;17.48;;
42884;SDS011;28534;48.100;11.584;2022-12-18T07:41:32;39.25;;;17.50;;
42884;SDS011;28534;48.100;11.584;2022-12-18T07:46:36;42.80;;;17.98;;
42884;SDS011;28534;48.100;11.584;2022-12-18T07:51:37;42.22;;;18.98;;
42884;SDS011;28534;48.100;11.584;2022-12-18T07:56:39;37.55;;;16.15;;
42884;SDS011;28534;48.100;11.584;2022-12-18T08:01:42;34.47;;;15.05;;
42884;SDS011;28534;48.100;11.584;2022-12-18T08:06:45;34.67;;;15.05;;
42884;SDS011;28534;48.100;11.584;2022-12-18T08:11:47;38.42;;;15.10;;
42884;SDS011;28534;48.100;11.584;2022-12-18T08:16:50;40.50;;;14.70;;
42884;SDS011;28534;48.100;11.584;2022-12-18T08:21:52;34.97;;;14.15;;
42884;SDS011;28534;48.100;11.584;2022-12-18T08:26:53;37.40;;;14.60;;
42884;SDS011;28534;48.100;11.584;2022-12-18T08:31:58;29.63;;;12.93;;
42884;SDS011;28534;48.100;11.584;2022-12-18T08:37:00;28.98;;;13.35;;
42884;SDS011;28534;48.100;11.584;2022-12-18T08:42:02;33.63;;;12.98;;
42884;SDS011;28534;48.100;11.584;2022-12-18T08:47:31;28.42;;;13.65;;
42884;SDS011;28534;48.100;11.584;2022-12-18T08:52:33;30.42;;;13.20;;
42884;SDS011;28534;48.100;11.584;2022-12-18T08:57:34;27.92;;;13.55;;
42884;SDS011;28534;48.100;11.584;2022-12-18T09:02:38;29.38;;;12.63;;
42884;SDS011;28534;48.100;11.584;2022-12-18T09:07:39;26.27;;;12.18;;
42884;SDS011;28534;48.100;11.584;2022-12-18T09:12:41;30.33;;;12.55;;
42884;SDS011;28534;48.100;11.584;2022-12-18T09:17:44;24.90;;;12.68;;
42884;SDS011;28534;48.100;11.584;2022-12-18T09:22:46;27.95;;;12.68;;
42884;SDS011;28534;48.100;11.584;2022-12-18T09:27:48;24.45;;;11.48;;
42884;SDS011;28534;48.100;11.584;2022-12-18T09:32:51;25.85;;;11.15;;
42884;SDS011;28534;48.100;11.584;2022-12-18T09:37:55;24.23;;;11.93;;
42884;SDS011;28534;48.100;11.584;2022-12-18T09:42:57;26.48;;;12.18;;
42884;SDS011;28534;48.100;11.584;2022-12-18T09:48:03;26.80;;;12.35;;
42884;SDS011;28534;48.100;11.584;2022-12-18T09:53:09;21.67;;;11.13;;
42884;SDS011;28534;48.100;11.584;2022-12-18T09:58:16;23.17;;;10.75;;
42884;SDS011;28534;48.100;11.584;2022-12-18T10:03:25;27.00;;;11.13;;
42884;SDS011;28534;48.100;11.584;2022-12-18T10:08:29;19.13;;;9.85;;
42884;SDS011;28534;48.100;11.584;2022-12-18T10:13:38;21.00;;;10.35;;
42884;SDS011;28534;48.100;11.584;2022-12-18T10:18:53;21.08;;;9.73;;
42884;SDS011;28534;48.100;11.584;2022-12-18T10:24:03;26.40;;;11.35;;
42884;SDS011;28534;48.100;11.584;2022-12-18T10:29:15;29.80;;;14.82;;
42884;SDS011;28534;48.100;11.584;2022-12-18T10:34:19;36.10;;;18.17;;
42884;SDS011;28534;48.100;11.584;2022-12-18T10:39:22;43.35;;;21.67;;
42884;SDS011;28534;48.100;11.584;2022-12-18T10:44:26;43.35;;;21.67;;
42884;SDS011;28534;48.100;11.584;2022-12-18T10:49:30;46.10;;;21.20;;
42884;SDS011;28534;48.100;11.584;2022-12-18T10:54:34;40.88;;;21.50;;
42884;SDS011;28534;48.100;11.584;2022-12-18T10:59:38;46.60;;;20.60;;
42884;SDS011;28534;48.100;11.584;2022-12-18T11:04:53;40.65;;;20.73;;
42884;SDS011;28534;48.100;11.584;2022-12-18T11:10:01;36.15;;;19.17;;
42884;SDS011;28534;48.100;11.584;2022-12-18T11:15:03;38.30;;;19.23;;
42884;SDS011;28534;48.100;11.584;2022-12-18T11:20:18;42.85;;;18.40;;
42884;SDS011;28534;48.100;11.584;2022-12-18T11:25:22;42.08;;;18.83;;
42884;SDS011;28534;48.100;11.584;2022-12-18T11:30:25;28.98;;;15.23;;
42884;SDS011;28534;48.100;11.584;2022-12-18T11:35:35;29.52;;;14.13;;
42884;SDS011;28534;48.100;11.584;2022-12-18T11:40:42;25.02;;;12.82;;
42884;SDS011;28534;48.100;11.584;2022-12-18T11:45:48;24.58;;;12.55;;
42884;SDS011;28534;48.100;11.584;2022-12-18T11:50:57;22.83;;;14.90;;
42884;SDS011;28534;48.100;11.584;2022-12-18T11:56:02;23.15;;;15.02;;
42884;SDS011;28534;48.100;11.584;2022-12-18T12:01:23;19.20;;;10.77;;
42884;SDS011;28534;48.100;11.584;2022-12-18T12:06:37;21.60;;;12.00;;
42884;SDS011;28534;48.100;11.584;2022-12-18T12:11:48;21.38;;;10.57;;
42884;SDS011;28534;48.100;11.584;2022-12-18T12:17:01;16.08;;;8.75;;
42884;SDS011;28534;48.100;11.584;2022-12-18T12:22:10;19.27;;;9.15;;
42884;SDS011;28534;48.100;11.584;2022-12-18T12:27:23;15.30;;;7.60;;
42884;SDS011;28534;48.100;11.584;2022-12-18T12:32:36;15.13;;;7.43;;
42884;SDS011;28534;48.100;11.584;2022-12-18T12:37:54;13.75;;;7.50;;
42884;SDS011;28534;48.100;11.584;2022-12-18T12:43:07;12.80;;;7.38;;
42884;SDS011;28534;48.100;11.584;2022-12-18T12:48:23;13.43;;;7.03;;
42884;SDS011;28534;48.100;11.584;2022-12-18T12:53:36;11.80;;;6.35;;
42884;SDS011;28534;48.100;11.584;2022-12-18T12:58:41;12.52;;;6.75;;
42884;SDS011;28534;48.100;11.584;2022-12-18T13:03:55;12.55;;;6.90;;
42884;SDS011;28534;48.100;11.584;2022-12-18T13:09:05;13.02;;;6.22;;
42884;SDS011;28534;48.100;11.584;2022-12-18T13:14:12;11.13;;;6.65;;
42884;SDS011;28534;48.100;11.584;2022-12-18T13:19:25;9.25;;;5.97;;
42884;SDS011;28534;48.100;11.584;2022-12-18T13:24:30;10.68;;;6.05;;
42884;SDS011;28534;48.100;11.584;2022-12-18T13:29:42;12.05;;;6.15;;
42884;SDS011;28534;48.100;11.584;2022-12-18T13:34:45;9.35;;;5.90;;
42884;SDS011;28534;48.100;11.584;2022-12-18T13:39:48;10.60;;;6.00;;
42884;SDS011;28534;48.100;11.584;2022-12-18T13:44:50;10.23;;;6.25;;
42884;SDS011;28534;48.100;11.584;2022-12-18T13:49:52;8.10;;;5.80;;
42884;SDS011;28534;48.100;11.584;2022-12-18T13:54:56;11.65;;;6.15;;
42884;SDS011;28534;48.100;11.584;2022-12-18T14:00:14;10.07;;;5.93;;
42884;SDS011;28534;48.100;11.584;2022-12-18T14:05:28;8.10;;;5.32;;
42884;SDS011;28534;48.100;11.584;2022-12-18T14:10:32;7.80;;;5.18;;
42884;SDS011;28534;48.100;11.584;2022-12-18T14:15:35;9.13;;;5.82;;
42884;SDS011;28534;48.100;11.584;2022-12-18T14:20:41;9.00;;;5.60;;
42884;SDS011;28534;48.100;11.584;2022-12-18T14:25:48;9.93;;;6.07;;
42884;SDS011;28534;48.100;11.584;2022-12-18T14:30:50;10.45;;;5.47;;
42884;SDS011;28534;48.100;11.584;2022-12-18T14:35:53;7.93;;;5.50;;
42884;SDS011;28534;48.100;11.584;2022-12-18T14:40:59;8.25;;;5.18;;
42884;SDS011;28534;48.100;11.584;2022-12-18T14:46:02;7.68;;;5.22;;
42884;SDS011;28534;48.100;11.584;2022-12-18T14:51:06;8.98;;;5.40;;
42884;SDS011;28534;48.100;11.584;2022-12-18T14:56:18;9.07;;;5.35;;
42884;SDS011;28534;48.100;11.584;2022-12-18T15:01:23;7.70;;;5.30;;
42884;SDS011;28534;48.100;11.584;2022-12-18T15:06:28;8.57;;;5.10;;
42884;SDS011;28534;48.100;11.584;2022-12-18T15:11:35;8.88;;;5.05;;
42884;SDS011;28534;48.100;11.584;2022-12-18T15:16:49;8.88;;;5.25;;
42884;SDS011;28534;48.100;11.584;2022-12-18T15:21:54;8.77;;;5.15;;
42884;SDS011;28534;48.100;11.584;2022-12-18T15:27:00;9.57;;;5.28;;
42884;SDS011;28534;48.100;11.584;2022-12-18T15:32:03;8.32;;;4.97;;
42884;SDS011;28534;48.100;11.584;2022-12-18T15:37:06;10.70;;;5.18;;
42884;SDS011;28534;48.100;11.584;2022-12-18T15:42:09;11.30;;;5.10;;
42884;SDS011;28534;48.100;11.584;2022-12-18T15:47:29;8.07;;;4.93;;
42884;SDS011;28534;48.100;11.584;2022-12-18T15:52:31;10.52;;;5.00;;
42884;SDS011;28534;48.100;11.584;2022-12-18T15:57:41;9.00;;;4.95;;
42884;SDS011;28534;48.100;11.584;2022-12-18T16:02:43;13.20;;;5.78;;
42884;SDS011;28534;48.100;11.584;2022-12-18T16:07:45;11.43;;;5.00;;
42884;SDS011;28534;48.100;11.584;2022-12-18T16:12:48;11.35;;;5.22;;
42884;SDS011;28534;48.100;11.584;2022-12-18T16:17:50;13.07;;;5.28;;
42884;SDS011;28534;48.100;11.584;2022-12-18T16:22:52;11.25;;;5.25;;
42884;SDS011;28534;48.100;11.584;2022-12-18T16:27:55;9.73;;;4.95;;
42884;SDS011;28534;48.100;11.584;2022-12-18T16:32:58;17.08;;;5.30;;
42884;SDS011;28534;48.100;11.584;2022-12-18T16:38:00;14.50;;;5.05;;
42884;SDS011;28534;48.100;11.584;2022-12-18T16:43:03;9.65;;;5.13;;
42884;SDS011;28534;48.100;11.584;2022-12-18T16:48:05;11.23;;;4.82;;
42884;SDS011;28534;48.100;11.584;2022-12-18T16:53:07;12.55;;;5.10;;
42884;SDS011;28534;48.100;11.584;2022-12-18T16:58:10;12.38;;;5.22;;
42884;SDS011;28534;48.100;11.584;2022-12-18T17:03:12;11.77;;;4.55;;
42884;SDS011;28534;48.100;11.584;2022-12-18T17:08:14;11.65;;;5.10;;
42884;SDS011;28534;48.100;11.584;2022-12-18T17:13:17;11.05;;;5.05;;
42884;SDS011;28534;48.100;11.584;2022-12-18T17:18:18;7.97;;;4.55;;
42884;SDS011;28534;48.100;11.584;2022-12-18T17:23:20;15.60;;;5.15;;
42884;SDS011;28534;48.100;11.584;2022-12-18T17:28:23;8.23;;;4.60;;
42884;SDS011;28534;48.100;11.584;2022-12-18T17:33:26;10.05;;;4.90;;
42884;SDS011;28534;48.100;11.584;2022-12-18T17:38:28;9.02;;;5.05;;
42884;SDS011;28534;48.100;11.584;2022-12-18T17:43:31;10.95;;;4.90;;
42884;SDS011;28534;48.100;11.584;2022-12-18T17:48:34;10.55;;;4.75;;
42884;SDS011;28534;48.100;11.584;2022-12-18T17:53:37;7.43;;;4.30;;
42884;SDS011;28534;48.100;11.584;2022-12-18T17:58:40;9.80;;;4.97;;
42884;SDS011;28534;48.100;11.584;2022-12-18T18:03:42;14.07;;;6.35;;
42884;SDS011;28534;48.100;11.584;2022-12-18T18:08:45;17.83;;;5.57;;
42884;SDS011;28534;48.100;11.584;2022-12-18T18:13:48;16.73;;;5.15;;
42884;SDS011;28534;48.100;11.584;2022-12-18T18:19:05;17.50;;;5.70;;
42884;SDS011;28534;48.100;11.584;2022-12-18T18:24:07;16.83;;;6.20;;
42884;SDS011;28534;48.100;11.584;2022-12-18T18:29:12;10.63;;;5.20;;
42884;SDS011;28534;48.100;11.584;2022-12-18T18:34:16;14.57;;;6.60;;
42884;SDS011;28534;48.100;11.584;2022-12-18T18:39:19;13.48;;;5.75;;
42884;SDS011;28534;48.100;11.584;2022-12-18T18:44:22;9.15;;;5.25;;
42884;SDS011;28534;48.100;11.584;2022-12-18T18:49:24;13.98;;;5.63;;
42884;SDS011;28534;48.100;11.584;2022-12-18T18:54:27;35.33;;;23.63;;
42884;SDS011;28534;48.100;11.584;2022-12-18T18:59:31;30.50;;;20.35;;
42884;SDS011;28534;48.100;11.584;2022-12-18T19:04:33;26.02;;;18.88;;
42884;SDS011;28534;48.100;11.584;2022-12-18T19:09:35;25.50;;;18.25;;
42884;SDS011;28534;48.100;11.584;2022-12-18T19:14:38;24.00;;;16.13;;
42884;SDS011;28534;48.100;11.584;2022-12-18T19:19:40;21.33;;;15.00;;
42884;SDS011;28534;48.100;11.584;2022-12-18T19:24:42;20.83;;;14.75;;
42884;SDS011;28534;48.100;11.584;2022-12-18T19:29:45;19.25;;;13.43;;
42884;SDS011;28534;48.100;11.584;2022-12-18T19:34:49;17.60;;;12.68;;
42884;SDS011;28534;48.100;11.584;2022-12-18T19:39:52;18.17;;;12.77;;
42884;SDS011;28534;48.100;11.584;2022-12-18T19:44:56;17.38;;;11.43;;
42884;SDS011;28534;48.100;11.584;2022-12-18T19:49:58;16.60;;;11.75;;
42884;SDS011;28534;48.100;11.584;2022-12-18T19:55:00;15.57;;;10.88;;
42884;SDS011;28534;48.100;11.584;2022-12-18T20:00:03;15.57;;;10.48;;
42884;SDS011;28534;48.100;11.584;2022-12-18T20:05:07;14.10;;;10.70;;
42884;SDS011;28534;48.100;11.584;2022-12-18T20:10:12;13.93;;;10.43;;
42884;SDS011;28534;48.100;11.584;2022-12-18T20:15:15;11.82;;;9.35;;
42884;SDS011;28534;48.100;11.584;2022-12-18T20:20:17;13.23;;;9.25;;
42884;SDS011;28534;48.100;11.584;2022-12-18T20:25:19;13.43;;;9.00;;
42884;SDS011;28534;48.100;11.584;2022-12-18T20:30:22;13.88;;;10.50;;
42884;SDS011;28534;48.100;11.584;2022-12-18T20:35:24;12.45;;;9.63;;
42884;SDS011;28534;48.100;11.584;2022-12-18T20:40:27;11.07;;;9.05;;
42884;SDS011;28534;48.100;11.584;2022-12-18T20:45:30;13.02;;;9.63;;
42884;SDS011;28534;48.100;11.584;2022-12-18T20:50:32;11.27;;;8.65;;
42884;SDS011;28534;48.100;11.584;2022-12-18T20:55:34;10.98;;;8.50;;
42884;SDS011;28534;48.100;11.584;2022-12-18T21:00:41;11.50;;;8.88;;
42884;SDS011;28534;48.100;11.584;2022-12-18T21:05:44;11.43;;;8.45;;
42884;SDS011;28534;48.100;11.584;2022-12-18T21:10:45;10.65;;;8.45;;
42884;SDS011;28534;48.100;11.584;2022-12-18T21:15:48;10.18;;;8.32;;
42884;SDS011;28534;48.100;11.584;2022-12-18T21:20:53;9.60;;;8.00;;
42884;SDS011;28534;48.100;11.584;2022-12-18T21:26:04;10.68;;;8.43;;
42884;SDS011;28534;48.100;11.584;2022-12-18T21:31:16;10.75;;;8.20;;
42884;SDS011;28534;48.100;11.584;2022-12-18T21:36:18;10.23;;;7.55;;
42884;SDS011;28534;48.100;11.584;2022-12-18T21:41:20;10.65;;;7.88;;
42884;SDS011;28534;48.100;11.584;2022-12-18T21:46:41;10.05;;;8.27;;
42884;SDS011;28534;48.100;11.584;2022-12-18T21:51:44;10.20;;;8.25;;
42884;SDS011;28534;48.100;11.584;2022-12-18T21:56:46;9.38;;;7.35;;
42884;SDS011;28534;48.100;11.584;2022-12-18T22:01:51;10.07;;;7.50;;
42884;SDS011;28534;48.100;11.584;2022-12-18T22:06:53;9.48;;;7.60;;
42884;SDS011;28534;48.100;11.584;2022-12-18T22:11:55;10.25;;;7.38;;
42884;SDS011;28534;48.100;11.584;2022-12-18T22:16:59;8.38;;;7.28;;
42884;SDS011;28534;48.100;11.584;2022-12-18T22:22:00;9.35;;;7.68;;
42884;SDS011;28534;48.100;11.584;2022-12-18T22:27:02;9.68;;;7.60;;
42884;SDS011;28534;48.100;11.584;2022-12-18T22:32:06;10.32;;;7.90;;
42884;SDS011;28534;48.100;11.584;2022-12-18T22:37:09;8.52;;;7.05;;
42884;SDS011;28534;48.100;11.584;2022-12-18T22:42:12;8.13;;;6.85;;
42884;SDS011;28534;48.100;11.584;2022-12-18T22:47:15;8.75;;;7.30;;
42884;SDS011;28534;48.100;11.584;2022-12-18T22:52:17;9.20;;;7.05;;
42884;SDS011;28534;48.100;11.584;2022-12-18T22:57:19;7.95;;;6.80;;
42884;SDS011;28534;48.100;11.584;2022-12-18T23:02:22;9.15;;;7.45;;
42884;SDS011;28534;48.100;11.584;2022-12-18T23:07:23;8.60;;;6.90;;
42884;SDS011;28534;48.100;11.584;2022-12-18T23:12:25;8.52;;;7.00;;
42884;SDS011;28534;48.100;11.584;2022-12-18T23:17:28;7.95;;;6.95;;
42884;SDS011;28534;48.100;11.584;2022-12-18T23:22:30;8.00;;;6.35;;
42884;SDS011;28534;48.100;11.584;2022-12-18T23:27:32;7.32;;;6.38;;
42884;SDS011;28534;48.100;11.584;2022-12-18T23:32:35;8.20;;;7.20;;
42884;SDS011;28534;48.100;11.584;2022-12-18T23:37:37;7.97;;;6.45;;
42884;SDS011;28534;48.100;11.584;2022-12-18T23:42:39;8.20;;;6.95;;
42884;SDS011;28534;48.100;11.584;2022-12-18T23:47:42;7.72;;;6.72;;
42884;SDS011;28534;48.100;11.584;2022-12-18T23:52:44;8.93;;;6.95;;
42884;SDS011;28534;48.100;11.584;2022-12-18T23:57:46;8.13;;;7.00;;
